createdAt,value
2023-11-14T00:00:07.947Z,9.90
2023-11-14T00:02:36.556Z,10.00
2023-11-14T00:05:06.043Z,10.00
2023-11-14T00:07:34.618Z,10.00
2023-11-14T00:10:04.623Z,9.90
2023-11-14T00:12:33.703Z,9.90
2023-11-14T00:15:01.988Z,9.90
2023-11-14T00:17:33.584Z,9.90
2023-11-14T00:20:02.136Z,9.90
2023-11-14T00:22:31.495Z,10.00
2023-11-14T00:24:59.809Z,10.10
2023-11-14T00:27:28.908Z,10.10
2023-11-14T00:29:57.787Z,10.20
2023-11-14T00:32:26.841Z,10.10
2023-11-14T00:34:55.483Z,10.10
2023-11-14T00:37:23.706Z,10.10
2023-11-14T00:39:52.452Z,10.10
2023-11-14T00:42:20.490Z,10.10
2023-11-14T00:44:48.558Z,10.10
2023-11-14T00:47:16.886Z,10.10
2023-11-14T00:49:45.371Z,10.10
2023-11-14T00:52:14.187Z,10.10
2023-11-14T00:54:42.340Z,10.00
2023-11-14T00:57:10.585Z,10.10
2023-11-14T00:59:38.657Z,10.20
2023-11-14T01:02:09.460Z,10.20
2023-11-14T01:04:41.346Z,10.30
2023-11-14T01:07:11.697Z,10.20
2023-11-14T01:09:39.998Z,10.20
2023-11-14T01:12:08.787Z,10.30
2023-11-14T01:14:36.935Z,10.20
2023-11-14T01:17:05.274Z,10.30
2023-11-14T01:19:33.532Z,10.30
2023-11-14T01:22:01.661Z,10.30
2023-11-14T01:24:30.472Z,10.30
2023-11-14T01:26:58.571Z,10.30
2023-11-14T01:29:26.679Z,10.30
2023-11-14T01:31:54.932Z,10.30
2023-11-14T01:34:27.204Z,10.40
2023-11-14T01:37:00.147Z,10.40
2023-11-14T01:39:30.860Z,10.40
2023-11-14T01:41:58.929Z,10.40
2023-11-14T01:44:27.645Z,10.30
2023-11-14T01:46:56.276Z,10.30
2023-11-14T01:49:25.097Z,10.30
2023-11-14T01:51:54.801Z,10.40
2023-11-14T01:54:24.161Z,10.40
2023-11-14T01:56:52.795Z,10.30
2023-11-14T01:59:21.667Z,10.30
2023-11-14T02:01:49.988Z,10.30
2023-11-14T02:04:22.297Z,10.30
2023-11-14T02:06:50.392Z,10.30
2023-11-14T02:09:19.189Z,10.40
2023-11-14T02:11:47.937Z,10.30
2023-11-14T02:14:16.924Z,10.30
2023-11-14T02:16:47.145Z,10.30
2023-11-14T02:19:16.159Z,10.20
2023-11-14T02:21:44.704Z,10.20
2023-11-14T02:24:22.975Z,10.30
2023-11-14T02:26:52.165Z,10.40
2023-11-14T02:29:22.408Z,10.40
2023-11-14T02:31:51.288Z,10.50
2023-11-14T02:34:19.798Z,10.50
2023-11-14T02:36:48.389Z,10.50
2023-11-14T02:39:16.531Z,10.50
2023-11-14T02:41:44.877Z,10.50
2023-11-14T02:44:15.081Z,10.60
2023-11-14T02:46:43.974Z,10.50
2023-11-14T02:49:17.954Z,10.50
2023-11-14T02:51:46.788Z,10.40
2023-11-14T02:54:15.116Z,10.50
2023-11-14T02:56:43.580Z,10.50
2023-11-14T02:59:12.582Z,10.60
2023-11-14T03:01:41.002Z,10.60
2023-11-14T03:04:09.841Z,10.50
2023-11-14T03:06:41.046Z,10.60
2023-11-14T03:09:10.265Z,10.60
2023-11-14T03:11:38.433Z,10.60
2023-11-14T03:14:06.744Z,10.70
2023-11-14T03:16:35.442Z,10.70
2023-11-14T03:19:03.775Z,10.70
2023-11-14T03:21:32.475Z,10.70
2023-11-14T03:24:00.742Z,10.70
2023-11-14T03:26:35.163Z,10.70
2023-11-14T03:29:04.494Z,10.80
2023-11-14T03:31:33.196Z,10.70
2023-11-14T03:34:01.305Z,10.70
2023-11-14T03:36:29.826Z,10.70
2023-11-14T03:38:57.906Z,10.80
2023-11-14T03:41:26.072Z,10.80
2023-11-14T03:43:54.348Z,10.80
2023-11-14T03:46:22.436Z,10.70
2023-11-14T03:48:50.565Z,10.80
2023-11-14T03:51:18.591Z,10.80
2023-11-14T03:53:46.881Z,10.80
2023-11-14T03:56:15.377Z,10.70
2023-11-14T03:58:44.760Z,10.60
2023-11-14T04:01:13.269Z,10.60
2023-11-14T04:03:42.093Z,10.50
2023-11-14T04:06:12.421Z,10.60
2023-11-14T04:08:40.450Z,10.60
2023-11-14T04:11:09.327Z,10.40
2023-11-14T04:13:39.728Z,10.30
2023-11-14T04:16:10.414Z,10.30
2023-11-14T04:18:40.340Z,10.20
2023-11-14T04:21:08.595Z,10.10
2023-11-14T04:23:37.176Z,10.10
2023-11-14T04:26:05.405Z,10.10
2023-11-14T04:28:33.444Z,10.10
2023-11-14T04:31:01.702Z,10.00
2023-11-14T04:33:30.079Z,9.90
2023-11-14T04:35:58.422Z,9.90
2023-11-14T04:38:26.508Z,9.90
2023-11-14T04:40:57.295Z,9.80
2023-11-14T04:43:25.697Z,9.80
2023-11-14T04:45:53.770Z,9.70
2023-11-14T04:48:22.217Z,9.70
2023-11-14T04:50:50.540Z,9.70
2023-11-14T04:53:18.654Z,9.70
2023-11-14T04:55:47.425Z,9.90
2023-11-14T04:58:15.504Z,10.00
2023-11-14T05:00:43.592Z,10.00
2023-11-14T05:03:12.067Z,10.00
2023-11-14T05:05:40.456Z,9.90
2023-11-14T05:08:09.080Z,9.90
2023-11-14T05:10:37.700Z,9.90
2023-11-14T05:13:06.493Z,9.80
2023-11-14T05:15:34.589Z,9.80
2023-11-14T05:18:04.610Z,9.80
2023-11-14T05:20:32.736Z,9.70
2023-11-14T05:23:01.441Z,9.60
2023-11-14T05:25:29.893Z,9.60
2023-11-14T05:27:57.940Z,9.60
2023-11-14T05:30:26.484Z,9.70
2023-11-14T05:32:54.678Z,9.70
2023-11-14T05:35:22.810Z,9.70
2023-11-14T05:37:51.028Z,9.70
2023-11-14T05:40:19.745Z,9.60
2023-11-14T05:42:48.169Z,9.60
2023-11-14T05:45:17.995Z,9.70
2023-11-14T05:47:46.848Z,9.80
2023-11-14T05:50:15.416Z,9.80
2023-11-14T05:52:43.947Z,9.80
2023-11-14T05:55:12.443Z,9.80
2023-11-14T05:57:40.910Z,9.80
2023-11-14T06:00:14.981Z,9.80
2023-11-14T06:02:43.979Z,9.80
2023-11-14T06:05:12.305Z,9.80
2023-11-14T06:07:41.286Z,9.80
2023-11-14T06:10:10.108Z,10.00
2023-11-14T06:12:41.306Z,10.10
2023-11-14T06:15:11.227Z,10.00
2023-11-14T06:17:40.023Z,10.20
2023-11-14T06:20:09.923Z,10.30
2023-11-14T06:22:38.889Z,10.30
2023-11-14T06:25:08.952Z,10.30
2023-11-14T06:27:37.463Z,10.30
2023-11-14T06:30:08.075Z,10.40
2023-11-14T06:32:37.307Z,10.40
2023-11-14T06:35:06.046Z,10.30
2023-11-14T06:37:36.854Z,10.30
2023-11-14T06:40:05.594Z,10.30
2023-11-14T06:42:35.134Z,10.30
2023-11-14T06:45:04.002Z,10.20
2023-11-14T06:47:34.263Z,10.20
2023-11-14T06:50:03.039Z,10.20
2023-11-14T06:52:32.114Z,10.30
2023-11-14T06:55:00.305Z,10.40
2023-11-14T06:57:28.573Z,10.40
2023-11-14T06:59:59.395Z,10.50
2023-11-14T07:02:28.776Z,10.60
2023-11-14T07:04:57.208Z,10.70
2023-11-14T07:07:25.744Z,11.00
2023-11-14T07:09:53.973Z,11.20
2023-11-14T07:12:22.874Z,11.30
2023-11-14T07:14:51.133Z,11.40
2023-11-14T07:17:20.469Z,11.60
2023-11-14T07:19:49.057Z,12.10
2023-11-14T07:22:18.508Z,12.30
2023-11-14T07:24:47.498Z,12.60
2023-11-14T07:27:16.901Z,12.60
2023-11-14T07:29:47.292Z,12.50
2023-11-14T07:32:15.563Z,12.20
2023-11-14T07:34:44.328Z,11.90
2023-11-14T07:37:12.997Z,12.20
2023-11-14T07:39:41.434Z,12.10
2023-11-14T07:42:09.740Z,12.10
2023-11-14T07:44:38.616Z,12.00
2023-11-14T07:47:15.700Z,11.90
2023-11-14T07:49:49.949Z,12.00
2023-11-14T07:52:18.059Z,12.10
2023-11-14T07:54:48.274Z,12.20
2023-11-14T07:57:17.545Z,12.20
2023-11-14T07:59:45.934Z,12.30
2023-11-14T08:02:15.318Z,12.30
2023-11-14T08:04:44.192Z,12.30
2023-11-14T08:07:12.292Z,12.30
2023-11-14T08:09:41.022Z,12.40
2023-11-14T08:12:09.958Z,12.40
2023-11-14T08:14:43.007Z,12.60
2023-11-14T08:17:11.313Z,12.60
2023-11-14T08:19:40.801Z,12.70
2023-11-14T08:22:10.416Z,12.80
2023-11-14T08:24:39.943Z,12.80
2023-11-14T08:27:08.253Z,12.80
2023-11-14T08:29:37.884Z,12.80
2023-11-14T08:32:06.998Z,12.80
2023-11-14T08:34:35.210Z,12.80
2023-11-14T08:37:04.480Z,12.80
2023-11-14T08:39:32.659Z,12.90
2023-11-14T08:42:01.216Z,12.90
2023-11-14T08:44:29.722Z,13.00
2023-11-14T08:46:58.471Z,13.00
2023-11-14T08:49:26.697Z,13.00
2023-11-14T08:51:54.918Z,13.00
2023-11-14T08:54:23.929Z,13.10
2023-11-14T08:56:52.393Z,13.20
2023-11-14T08:59:20.644Z,13.20
2023-11-14T09:01:49.457Z,13.30
2023-11-14T09:04:19.401Z,13.40
2023-11-14T09:06:51.327Z,13.50
2023-11-14T09:09:23.024Z,13.50
2023-11-14T09:11:51.994Z,13.60
2023-11-14T09:14:20.112Z,13.60
2023-11-14T09:16:48.957Z,13.80
2023-11-14T09:19:17.127Z,13.90
2023-11-14T09:21:45.273Z,14.00
2023-11-14T09:24:14.208Z,14.00
2023-11-14T09:26:42.643Z,14.20
2023-11-14T09:29:10.936Z,14.30
2023-11-14T09:31:40.163Z,14.30
2023-11-14T09:34:09.943Z,14.50
2023-11-14T09:36:39.012Z,14.70
2023-11-14T09:39:19.128Z,14.70
2023-11-14T09:41:52.986Z,14.50
2023-11-14T09:44:21.389Z,14.50
2023-11-14T09:46:52.207Z,14.60
2023-11-14T09:49:20.785Z,14.60
2023-11-14T09:51:52.021Z,14.70
2023-11-14T09:54:22.742Z,14.90
2023-11-14T09:56:51.998Z,15.10
2023-11-14T09:59:21.385Z,15.30
2023-11-14T10:01:49.845Z,15.40
2023-11-14T10:04:18.111Z,15.50
2023-11-14T10:06:46.740Z,15.60
2023-11-14T10:09:16.389Z,15.70
2023-11-14T10:14:22.387Z,15.80
2023-11-14T10:17:00.635Z,15.90
2023-11-14T10:19:28.949Z,16.00
2023-11-14T10:22:05.779Z,16.10
2023-11-14T10:24:34.440Z,16.30
2023-11-14T10:27:03.097Z,16.30
2023-11-14T10:29:31.758Z,16.30
2023-11-14T10:31:59.928Z,16.40
2023-11-14T10:34:33.286Z,16.40
2023-11-14T10:37:05.114Z,16.40
2023-11-14T10:39:34.029Z,16.50
2023-11-14T10:42:11.739Z,16.50
2023-11-14T10:44:40.431Z,16.50
2023-11-14T10:47:09.246Z,16.50
2023-11-14T10:49:48.878Z,16.50
2023-11-14T10:52:19.293Z,16.60
2023-11-14T10:54:48.585Z,16.70
2023-11-14T10:57:25.626Z,16.80
2023-11-14T10:59:59.390Z,16.90
2023-11-14T11:02:35.179Z,17.00
2023-11-14T11:05:07.678Z,17.10
2023-11-14T11:07:38.594Z,17.10
2023-11-14T11:10:08.247Z,17.10
2023-11-14T11:12:40.906Z,17.10
2023-11-14T11:15:12.668Z,17.10
2023-11-14T11:17:47.151Z,17.20
2023-11-14T11:20:30.433Z,17.30
2023-11-14T11:23:13.636Z,17.30
2023-11-14T11:25:46.452Z,17.50
2023-11-14T11:28:24.036Z,17.60
2023-11-14T11:31:07.507Z,17.80
2023-11-14T11:33:37.967Z,17.90
2023-11-14T11:36:33.693Z,17.90
2023-11-14T11:39:08.976Z,17.90
2023-11-14T11:41:56.431Z,18.00
2023-11-14T11:44:37.927Z,17.90
2023-11-14T11:47:26.970Z,17.70
2023-11-14T11:49:56.437Z,17.70
2023-11-14T11:52:25.173Z,17.80
2023-11-14T11:55:16.906Z,17.90
2023-11-14T11:57:48.170Z,18.10
2023-11-14T12:00:19.306Z,18.10
2023-11-14T12:02:47.918Z,18.10
2023-11-14T12:05:17.740Z,18.10
2023-11-14T12:07:47.882Z,18.10
2023-11-14T12:10:18.797Z,18.10
2023-11-14T12:12:47.456Z,18.10
2023-11-14T12:15:21.818Z,18.10
2023-11-14T12:17:54.861Z,18.10
2023-11-14T12:20:25.775Z,18.10
2023-11-14T12:22:55.048Z,18.20
2023-11-14T12:25:24.070Z,18.10
2023-11-14T12:27:59.536Z,18.20
2023-11-14T12:30:29.585Z,18.30
2023-11-14T12:33:10.427Z,18.30
2023-11-14T12:35:47.360Z,18.30
2023-11-14T12:38:16.046Z,18.40
2023-11-14T12:40:44.309Z,18.50
2023-11-14T12:43:13.327Z,18.60
2023-11-14T12:45:48.674Z,18.60
2023-11-14T12:48:17.171Z,18.70
2023-11-14T12:50:45.332Z,18.70
2023-11-14T12:53:13.813Z,18.70
2023-11-14T12:55:42.020Z,18.70
2023-11-14T12:58:10.721Z,18.80
2023-11-14T13:00:39.032Z,18.80
2023-11-14T13:03:07.423Z,18.80
2023-11-14T13:05:35.601Z,18.80
2023-11-14T13:08:04.284Z,18.90
2023-11-14T13:10:33.600Z,19.10
2023-11-14T13:13:01.843Z,19.10
2023-11-14T13:15:30.775Z,19.10
2023-11-14T13:17:59.586Z,19.20
2023-11-14T13:20:27.655Z,19.30
2023-11-14T13:22:55.893Z,19.30
2023-11-14T13:25:24.650Z,19.30
2023-11-14T13:27:53.205Z,19.30
2023-11-14T13:30:24.122Z,19.30
2023-11-14T13:32:54.807Z,18.90
2023-11-14T13:35:24.264Z,18.70
2023-11-14T13:37:52.756Z,18.70
2023-11-14T13:40:20.922Z,18.70
2023-11-14T13:42:49.010Z,18.70
2023-11-14T13:45:18.055Z,18.80
2023-11-14T13:47:47.338Z,18.80
2023-11-14T13:50:17.191Z,18.80
2023-11-14T13:52:47.909Z,18.80
2023-11-14T13:55:19.474Z,18.90
2023-11-14T13:57:48.380Z,18.90
2023-11-14T14:00:19.145Z,18.80
2023-11-14T14:02:47.486Z,18.60
2023-11-14T14:05:15.674Z,18.50
2023-11-14T14:07:46.521Z,18.50
2023-11-14T14:10:16.246Z,18.60
2023-11-14T14:12:47.997Z,18.50
2023-11-14T14:15:17.785Z,18.60
2023-11-14T14:17:47.273Z,18.50
2023-11-14T14:20:17.883Z,18.50
2023-11-14T14:22:56.544Z,18.50
2023-11-14T14:25:25.021Z,18.50
2023-11-14T14:27:53.276Z,18.50
2023-11-14T14:30:22.386Z,18.50
2023-11-14T14:32:51.337Z,18.40
2023-11-14T14:35:20.207Z,18.40
2023-11-14T14:37:48.734Z,18.40
2023-11-14T14:40:19.069Z,18.40
2023-11-14T14:42:47.688Z,18.40
2023-11-14T14:45:16.392Z,18.40
2023-11-14T14:47:44.574Z,18.50
2023-11-14T14:50:12.898Z,18.50
2023-11-14T14:52:42.136Z,18.50
2023-11-14T14:55:11.478Z,18.40
2023-11-14T14:57:40.815Z,18.40
2023-11-14T15:00:19.518Z,18.40
2023-11-14T15:02:48.845Z,18.30
2023-11-14T15:05:23.842Z,18.20
2023-11-14T15:07:52.816Z,18.20
2023-11-14T15:10:20.963Z,18.20
2023-11-14T15:12:49.287Z,18.10
2023-11-14T15:15:17.422Z,18.10
2023-11-14T15:17:48.161Z,18.00
2023-11-14T15:20:18.402Z,18.00
2023-11-14T15:22:47.538Z,17.90
2023-11-14T15:25:16.712Z,17.90
2023-11-14T15:27:45.408Z,17.80
2023-11-14T15:30:14.450Z,17.80
2023-11-14T15:32:45.725Z,17.70
2023-11-14T15:35:16.863Z,17.70
2023-11-14T15:37:45.374Z,17.60
2023-11-14T15:40:14.666Z,17.60
2023-11-14T15:42:44.372Z,17.60
2023-11-14T15:45:13.073Z,17.50
2023-11-14T15:47:41.228Z,17.50
2023-11-14T15:50:11.882Z,17.40
2023-11-14T15:52:40.201Z,17.40
2023-11-14T15:55:09.876Z,17.40
2023-11-14T15:57:39.083Z,17.40
2023-11-14T16:00:11.413Z,17.30
2023-11-14T16:02:39.847Z,17.20
2023-11-14T16:05:11.654Z,17.20
2023-11-14T16:07:39.746Z,17.20
2023-11-14T16:10:08.418Z,17.10
2023-11-14T16:12:39.135Z,17.10
2023-11-14T16:15:08.343Z,17.10
2023-11-14T16:17:36.754Z,17.10
2023-11-14T16:20:06.661Z,17.00
2023-11-14T16:22:35.442Z,17.00
2023-11-14T16:25:04.370Z,17.00
2023-11-14T16:27:33.229Z,16.90
2023-11-14T16:30:02.011Z,16.90
2023-11-14T16:32:33.315Z,16.80
2023-11-14T16:35:05.003Z,16.80
2023-11-14T16:37:34.052Z,16.80
2023-11-14T16:40:02.719Z,16.70
2023-11-14T16:42:33.190Z,16.70
2023-11-14T16:45:01.456Z,16.70
2023-11-14T16:47:33.502Z,16.70
2023-11-14T16:50:04.037Z,16.70
2023-11-14T16:52:34.183Z,16.60
2023-11-14T16:55:06.124Z,16.60
2023-11-14T16:57:37.133Z,16.50
2023-11-14T17:00:08.922Z,16.50
2023-11-14T17:02:38.514Z,16.40
2023-11-14T17:05:08.055Z,16.40
2023-11-14T17:07:36.505Z,16.40
2023-11-14T17:10:08.461Z,16.30
2023-11-14T17:12:37.455Z,16.30
2023-11-14T17:15:08.605Z,16.20
2023-11-14T17:17:37.624Z,16.10
2023-11-14T17:20:07.083Z,16.10
2023-11-14T17:22:36.633Z,16.10
2023-11-14T17:25:06.370Z,16.10
2023-11-14T17:27:35.382Z,16.00
2023-11-14T17:30:04.193Z,16.00
2023-11-14T17:32:33.808Z,16.00
2023-11-14T17:35:02.605Z,15.90
2023-11-14T17:37:31.821Z,15.90
2023-11-14T17:40:00.436Z,15.80
2023-11-14T17:42:28.965Z,15.80
2023-11-14T17:44:57.173Z,15.80
2023-11-14T17:47:26.319Z,15.80
2023-11-14T17:49:58.448Z,15.80
2023-11-14T17:52:27.141Z,15.80
2023-11-14T17:54:55.807Z,15.80
2023-11-14T17:57:24.418Z,15.80
2023-11-14T17:59:52.943Z,15.80
2023-11-14T18:02:21.240Z,15.80
2023-11-14T18:04:50.181Z,15.80
2023-11-14T18:07:19.030Z,15.80
2023-11-14T18:09:47.197Z,15.80
2023-11-14T18:12:15.762Z,15.80
2023-11-14T18:14:44.432Z,15.70
2023-11-14T18:17:14.382Z,15.70
2023-11-14T18:19:43.846Z,15.70
2023-11-14T18:22:12.222Z,15.70
2023-11-14T18:24:41.808Z,15.60
2023-11-14T18:27:10.359Z,15.60
2023-11-14T18:29:39.120Z,15.70
2023-11-14T18:32:07.405Z,15.60
2023-11-14T18:34:38.705Z,15.60
2023-11-14T18:37:07.144Z,15.60
2023-11-14T18:39:36.320Z,15.60
2023-11-14T18:42:06.750Z,15.60
2023-11-14T18:44:35.065Z,15.60
2023-11-14T18:47:07.801Z,15.60
2023-11-14T18:49:36.564Z,15.60
2023-11-14T18:52:05.879Z,15.60
2023-11-14T18:54:35.524Z,15.60
2023-11-14T18:57:04.420Z,15.60
2023-11-14T18:59:32.719Z,15.60
2023-11-14T19:02:01.914Z,15.50
2023-11-14T19:04:30.481Z,15.50
2023-11-14T19:06:59.144Z,15.50
2023-11-14T19:09:29.134Z,15.40
2023-11-14T19:11:58.508Z,15.40
2023-11-14T19:14:27.160Z,15.40
2023-11-14T19:16:56.247Z,15.40
2023-11-14T19:19:27.270Z,15.30
2023-11-14T19:22:00.271Z,15.30
2023-11-14T19:24:34.108Z,15.30
2023-11-14T19:27:03.199Z,15.30
2023-11-14T19:29:31.798Z,15.20
2023-11-14T19:32:00.485Z,15.20
2023-11-14T19:34:29.413Z,15.20
2023-11-14T19:36:58.690Z,15.20
2023-11-14T19:39:26.916Z,15.20
2023-11-14T19:41:56.020Z,15.20
2023-11-14T19:44:25.215Z,15.20
2023-11-14T19:46:55.688Z,15.20
2023-11-14T19:49:30.575Z,15.20
2023-11-14T19:52:03.036Z,15.20
2023-11-14T19:54:31.319Z,15.20
2023-11-14T19:56:59.991Z,15.20
2023-11-14T19:59:28.674Z,15.10
2023-11-14T20:01:57.149Z,15.10
2023-11-14T20:04:26.709Z,15.10
2023-11-14T20:06:55.164Z,15.10
2023-11-14T20:09:23.588Z,15.10
2023-11-14T20:11:52.792Z,15.10
2023-11-14T20:14:21.875Z,15.10
2023-11-14T20:16:50.538Z,15.10
2023-11-14T20:19:19.704Z,15.10
2023-11-14T20:21:48.851Z,15.10
2023-11-14T20:24:17.615Z,15.10
2023-11-14T20:26:45.741Z,15.10
2023-11-14T20:29:17.160Z,15.00
2023-11-14T20:31:46.443Z,14.90
2023-11-14T20:34:15.234Z,14.90
2023-11-14T20:36:43.577Z,14.90
2023-11-14T20:39:16.515Z,14.90
2023-11-14T20:41:46.021Z,14.90
2023-11-14T20:44:14.704Z,14.90
2023-11-14T20:46:43.144Z,14.90
2023-11-14T20:49:11.502Z,14.80
2023-11-14T20:51:39.700Z,14.80
2023-11-14T20:54:08.312Z,14.80
2023-11-14T20:56:37.312Z,14.80
2023-11-14T20:59:07.863Z,14.80
2023-11-14T21:01:36.140Z,14.70
2023-11-14T21:04:04.647Z,14.70
2023-11-14T21:06:33.365Z,14.70
2023-11-14T21:09:05.856Z,14.70
2023-11-14T21:11:34.476Z,14.60
2023-11-14T21:14:04.365Z,14.60
2023-11-14T21:16:32.957Z,14.60
2023-11-14T21:19:02.078Z,14.60
2023-11-14T21:21:31.527Z,14.50
2023-11-14T21:24:00.070Z,14.50
2023-11-14T21:26:29.466Z,14.50
2023-11-14T21:28:58.221Z,14.40
2023-11-14T21:31:28.021Z,14.40
2023-11-14T21:33:58.001Z,14.30
2023-11-14T21:36:27.587Z,14.30
2023-11-14T21:38:56.727Z,14.20
2023-11-14T21:41:25.529Z,14.20
2023-11-14T21:43:55.621Z,14.20
2023-11-14T21:46:24.448Z,14.20
2023-11-14T21:48:53.188Z,14.20
2023-11-14T21:51:21.721Z,14.20
2023-11-14T21:53:51.006Z,14.20
2023-11-14T21:56:19.576Z,14.30
2023-11-14T21:58:52.544Z,14.30
2023-11-14T22:01:25.402Z,14.20
2023-11-14T22:03:53.644Z,14.20
2023-11-14T22:06:23.043Z,14.20
2023-11-14T22:08:51.429Z,14.30
2023-11-14T22:11:19.517Z,14.20
2023-11-14T22:13:48.355Z,14.20
2023-11-14T22:16:17.210Z,14.20
2023-11-14T22:18:45.485Z,14.20
2023-11-14T22:21:13.659Z,14.20
2023-11-14T22:23:42.517Z,14.20
2023-11-14T22:26:12.584Z,14.20
2023-11-14T22:28:41.824Z,14.10
2023-11-14T22:31:13.317Z,14.00
2023-11-14T22:33:41.628Z,13.90
2023-11-14T22:36:10.923Z,13.90
2023-11-14T22:38:39.801Z,13.90
2023-11-14T22:41:10.600Z,14.00
2023-11-14T22:43:38.671Z,13.90
2023-11-14T22:46:06.939Z,13.80
2023-11-14T22:48:36.327Z,13.80
2023-11-14T22:51:04.664Z,13.70
2023-11-14T22:53:33.805Z,13.70
2023-11-14T22:56:02.328Z,13.70
2023-11-14T22:58:31.660Z,13.60
2023-11-14T23:01:01.311Z,13.60
2023-11-14T23:03:34.212Z,13.60
2023-11-14T23:06:02.607Z,13.50
2023-11-14T23:08:30.804Z,13.50
2023-11-14T23:10:59.666Z,13.40
2023-11-14T23:13:28.405Z,13.40
2023-11-14T23:15:57.208Z,13.40
2023-11-14T23:18:26.045Z,13.30
2023-11-14T23:20:54.636Z,13.30
2023-11-14T23:23:23.974Z,13.30
2023-11-14T23:25:52.471Z,13.10
2023-11-14T23:28:21.549Z,13.00
2023-11-14T23:30:50.233Z,13.00
2023-11-14T23:33:18.640Z,13.00
2023-11-14T23:35:46.706Z,12.90
2023-11-14T23:38:14.870Z,12.90
2023-11-14T23:40:45.068Z,12.90
2023-11-14T23:43:13.648Z,12.90
2023-11-14T23:45:42.259Z,12.90
2023-11-14T23:48:10.910Z,12.80
2023-11-14T23:50:39.034Z,12.80
2023-11-14T23:53:07.815Z,12.70
2023-11-14T23:55:36.140Z,12.70
2023-11-14T23:58:04.526Z,12.70
